createdAt,value
2018-03-14T00:04:49.165Z,3.9
2018-03-14T00:10:39.867Z,6.3
2018-03-14T00:16:30.445Z,5.64
2018-03-14T00:22:21.090Z,4.63
2018-03-14T00:28:11.721Z,7.96
2018-03-14T00:34:02.403Z,5.46
2018-03-14T00:39:53.014Z,7.91
2018-03-14T00:45:43.726Z,7.68
2018-03-14T00:51:34.320Z,6.51
2018-03-14T00:57:24.954Z,6.58
2018-03-14T01:03:15.593Z,5.59
2018-03-14T01:09:06.209Z,7.61
2018-03-14T01:14:56.860Z,8.01
2018-03-14T01:20:47.464Z,9.59
2018-03-14T01:26:38.099Z,9.37
2018-03-14T01:32:28.751Z,9.59
2018-03-14T01:38:19.419Z,9.33
2018-03-14T01:44:10.025Z,8.59
2018-03-14T01:50:00.719Z,8.14
2018-03-14T01:55:51.346Z,9.18
2018-03-14T02:01:41.936Z,8.61
2018-03-14T02:07:32.609Z,9.53
2018-03-14T02:13:23.258Z,11.1
2018-03-14T02:19:13.980Z,9.79
2018-03-14T02:25:04.548Z,9.62
2018-03-14T02:30:55.184Z,9.29
2018-03-14T02:36:45.842Z,10.2
2018-03-14T02:42:36.485Z,11.23
2018-03-14T02:48:27.119Z,8.95
2018-03-14T02:54:17.788Z,10.76
2018-03-14T03:00:08.364Z,8.61
2018-03-14T03:05:59.041Z,9.58
2018-03-14T03:11:49.662Z,8.22
2018-03-14T03:17:40.344Z,7.04
2018-03-14T03:23:30.984Z,7.63
2018-03-14T03:29:21.558Z,12.29
2018-03-14T03:35:12.245Z,5.75
2018-03-14T03:41:02.840Z,7.78
2018-03-14T03:46:53.472Z,7.33
2018-03-14T03:52:44.115Z,8.98
2018-03-14T03:58:34.739Z,10.96
2018-03-14T04:04:25.353Z,9.49
2018-03-14T04:10:16.001Z,13.48
2018-03-14T04:16:06.607Z,10.93
2018-03-14T04:21:57.314Z,9.41
2018-03-14T04:27:47.863Z,6.41
2018-03-14T04:33:38.526Z,5.89
2018-03-14T04:39:29.138Z,9.41
2018-03-14T04:45:19.734Z,9.28
2018-03-14T04:51:10.346Z,6.29
2018-03-14T04:57:01.024Z,6.02
2018-03-14T05:02:51.648Z,8.58
2018-03-14T05:08:42.221Z,6.16
2018-03-14T05:14:32.922Z,10.09
2018-03-14T05:20:23.516Z,13.68
2018-03-14T05:26:14.117Z,5.79
2018-03-14T05:32:04.760Z,5.53
2018-03-14T05:37:55.377Z,6.62
2018-03-14T05:43:45.997Z,4.36
2018-03-14T05:49:36.624Z,10.31
2018-03-14T05:55:27.260Z,8.03
2018-03-14T06:01:17.878Z,12.31
2018-03-14T06:07:08.508Z,8.81
2018-03-14T06:12:59.171Z,6.19
2018-03-14T06:18:49.758Z,5.74
2018-03-14T06:24:40.394Z,4.42
2018-03-14T06:30:31.022Z,7.12
2018-03-14T06:36:21.643Z,9.1
2018-03-14T06:42:12.294Z,6.44
2018-03-14T06:48:02.910Z,8.99
2018-03-14T06:53:53.595Z,12.99
2018-03-14T06:59:44.214Z,14.24
2018-03-14T07:05:34.844Z,16.31
2018-03-14T07:11:25.544Z,13.27
2018-03-14T07:17:16.212Z,15
2018-03-14T07:23:06.836Z,15.03
2018-03-14T07:28:57.487Z,15.79
2018-03-14T07:34:48.146Z,17.78
2018-03-14T07:40:38.762Z,17.42
2018-03-14T07:46:29.459Z,23.36
2018-03-14T07:52:20.146Z,26.34
2018-03-14T07:58:10.838Z,22.64
2018-03-14T08:04:01.501Z,19.65
2018-03-14T08:09:52.163Z,16.95
2018-03-14T08:15:42.871Z,19.38
2018-03-14T08:21:33.577Z,16
2018-03-14T08:27:24.274Z,14.72
2018-03-14T08:33:14.967Z,16.93
2018-03-14T08:39:05.714Z,22.21
2018-03-14T08:44:56.369Z,16.21
2018-03-14T08:50:47.066Z,15.91
2018-03-14T08:56:37.804Z,15.56
2018-03-14T09:02:28.563Z,15.35
2018-03-14T09:08:19.276Z,16.89
2018-03-14T09:14:09.989Z,22.76
2018-03-14T09:20:00.722Z,11.48
2018-03-14T09:25:51.482Z,16.06
2018-03-14T09:31:42.309Z,15.3
2018-03-14T09:37:32.951Z,22.26
2018-03-14T09:43:23.667Z,19.1
2018-03-14T09:49:14.447Z,17.85
2018-03-14T09:55:05.197Z,17.44
2018-03-14T10:00:55.886Z,11.59
2018-03-14T10:06:46.644Z,19.45
2018-03-14T10:12:37.402Z,17.56
2018-03-14T10:18:28.175Z,15.49
2018-03-14T10:24:18.946Z,13.63
2018-03-14T10:30:09.695Z,9.59
2018-03-14T10:36:00.428Z,10.77
2018-03-14T10:41:51.173Z,16.47
2018-03-14T10:47:41.941Z,10.35
2018-03-14T10:53:32.649Z,11.27
2018-03-14T10:59:23.394Z,9.38
2018-03-14T11:05:14.153Z,9.31
2018-03-14T11:11:04.864Z,7.46
2018-03-14T11:16:55.611Z,8.25
2018-03-14T11:22:46.375Z,8.83
2018-03-14T11:28:37.146Z,12.15
2018-03-14T11:34:27.866Z,6.42
2018-03-14T11:40:18.605Z,9.56
2018-03-14T11:46:09.379Z,4.84
2018-03-14T11:52:00.088Z,9.24
2018-03-14T11:57:50.882Z,6.04
2018-03-14T12:03:41.597Z,9.16
2018-03-14T12:09:32.385Z,6.56
2018-03-14T12:15:23.152Z,8.27
2018-03-14T12:21:13.970Z,7.23
2018-03-14T12:27:04.704Z,6.99
2018-03-14T12:32:55.469Z,7.16
2018-03-14T12:38:46.290Z,4.72
2018-03-14T12:44:37.015Z,9.84
2018-03-14T12:50:27.897Z,4.96
2018-03-14T12:56:18.632Z,6.06
2018-03-14T13:02:09.391Z,6.16
2018-03-14T13:08:00.249Z,7.63
2018-03-14T13:13:51.008Z,6.32
2018-03-14T13:19:41.750Z,5.58
2018-03-14T13:25:32.588Z,9.75
2018-03-14T13:31:23.352Z,8.2
2018-03-14T13:37:14.108Z,8.4
2018-03-14T13:43:04.915Z,7.52
2018-03-14T13:48:55.636Z,11.35
2018-03-14T13:54:46.429Z,8.99
2018-03-14T14:00:37.183Z,5.64
2018-03-14T14:06:27.913Z,5.58
2018-03-14T14:12:18.710Z,7.31
2018-03-14T14:18:09.460Z,4.61
2018-03-14T14:24:00.230Z,7.79
2018-03-14T14:29:51.000Z,5.84
2018-03-14T14:35:41.732Z,8.64
2018-03-14T14:41:32.643Z,4.15
2018-03-14T14:47:23.288Z,7.56
2018-03-14T14:53:14.044Z,9.15
2018-03-14T14:59:04.788Z,5.84
2018-03-14T15:04:55.630Z,7.43
2018-03-14T15:10:46.375Z,9.1
2018-03-14T15:16:37.087Z,6.66
2018-03-14T15:22:27.811Z,5.91
2018-03-14T15:28:18.574Z,8.19
2018-03-14T15:34:09.297Z,8.41
2018-03-14T15:40:00.012Z,6.22
2018-03-14T15:45:50.764Z,8.8
2018-03-14T15:51:41.494Z,7.62
2018-03-14T15:57:32.181Z,7.71
2018-03-14T16:03:22.902Z,7
2018-03-14T16:09:13.674Z,6.8
2018-03-14T16:15:04.372Z,8.79
2018-03-14T16:20:55.088Z,7.82
2018-03-14T16:26:45.821Z,7.36
2018-03-14T16:32:36.490Z,5.75
2018-03-14T16:38:27.203Z,5.19
2018-03-14T16:44:17.873Z,8.44
2018-03-14T16:50:08.743Z,6.51
2018-03-14T16:55:59.282Z,9.65
2018-03-14T17:01:49.985Z,9.61
2018-03-14T17:07:40.686Z,7.79
2018-03-14T17:13:31.419Z,8.81
2018-03-14T17:19:22.046Z,6.15
2018-03-14T17:25:12.765Z,7.8
2018-03-14T17:31:03.464Z,10.77
2018-03-14T17:36:54.162Z,9.77
2018-03-14T17:42:44.802Z,7.62
2018-03-14T17:48:35.485Z,11.51
2018-03-14T17:54:26.182Z,8.11
2018-03-14T18:00:16.857Z,7.87
2018-03-14T18:06:07.548Z,7.15
2018-03-14T18:11:58.230Z,14.28
2018-03-14T18:17:48.880Z,9.46
2018-03-14T18:23:39.518Z,14.35
2018-03-14T18:29:30.267Z,9.91
2018-03-14T18:35:20.960Z,12.04
2018-03-14T18:41:11.540Z,6.93
2018-03-14T18:47:02.253Z,8.44
2018-03-14T18:52:52.900Z,12.99
2018-03-14T18:58:43.566Z,11.7
2018-03-14T19:04:34.279Z,7.96
2018-03-14T19:10:24.874Z,11.54
2018-03-14T19:16:15.537Z,11.51
2018-03-14T19:22:06.185Z,13.55
2018-03-14T19:27:56.873Z,19.22
2018-03-14T19:33:47.534Z,12.74
2018-03-14T19:39:38.195Z,11.31
2018-03-14T19:45:28.824Z,10.47
2018-03-14T19:51:19.477Z,15.46
2018-03-14T19:57:10.142Z,10.11
2018-03-14T20:03:00.792Z,8.74
2018-03-14T20:08:51.538Z,11.36
2018-03-14T20:14:42.062Z,8.87
2018-03-14T20:20:32.744Z,15.5
2018-03-14T20:26:23.371Z,8.1
2018-03-14T20:32:14.033Z,10.49
2018-03-14T20:38:04.686Z,9.31
2018-03-14T20:43:55.280Z,11.63
2018-03-14T20:49:45.961Z,8.49
2018-03-14T20:55:36.570Z,10.23
2018-03-14T21:01:27.263Z,8.81
2018-03-14T21:07:17.883Z,8.99
2018-03-14T21:13:08.514Z,10.93
2018-03-14T21:18:59.196Z,12.27
2018-03-14T21:24:49.812Z,13.93
2018-03-14T21:30:40.454Z,7.44
2018-03-14T21:36:31.103Z,16.91
2018-03-14T21:42:21.787Z,14.66
2018-03-14T21:48:12.461Z,8.28
2018-03-14T21:54:03.127Z,11.34
2018-03-14T21:59:53.705Z,10.05
2018-03-14T22:05:44.911Z,12.92
2018-03-14T22:11:35.069Z,11.59
2018-03-14T22:17:25.678Z,9.76
2018-03-14T22:23:16.270Z,14.85
2018-03-14T22:29:06.937Z,8.92
2018-03-14T22:34:57.570Z,17.46
2018-03-14T22:40:48.210Z,10.6
2018-03-14T22:46:38.779Z,10.16
2018-03-14T22:52:29.490Z,10.22
2018-03-14T22:58:20.061Z,12.7
2018-03-14T23:04:10.705Z,7.5
2018-03-14T23:10:01.391Z,11.46
2018-03-14T23:15:51.994Z,14.46
2018-03-14T23:21:42.627Z,11.2
2018-03-14T23:27:33.272Z,13.07
2018-03-14T23:33:23.887Z,18.21
2018-03-14T23:39:14.538Z,15.35
2018-03-14T23:45:05.188Z,11.8
2018-03-14T23:50:55.810Z,11.43
2018-03-14T23:56:46.439Z,10.07
